PWSweather.com
Personal Weather Stations
Station Observations
IBAVARIA50
Munich, PlieningDE 85652

MunichPlieningDE 85652

Lat: 48.19916153, Lon: 11.79794312

Elevation: 504

Station Type: Davis Vantage Pro2

http://wetterstation-pliening.info

High Low Average
Temperature 80.5°F26.9°C 54.4°F12.4°C 67.0°F19.4°C
Dew Point 60.7°F15.9°C 51.2°F10.7°C 55.7°F13.2°C
Winds 9.0 mph 14.5 kmh Calm Calm 2.0 mph SW3.2 kmh SW
Wind Gusts 13.0 mph20.9 kmh -- 5.0 mph8.0 kmh
Humidity 90% 43% 70%
Pressure 30.19 in1022.4 mb 30.13 in1020.3 mb -
Precipitation 0.00 in0.0 mm - -
Hour Temp Dew Point Humidity Winds Wind Gusts Pressure Precip Precip Rate Daily Precip Total
12:00 AM 58.5°F14.7°C 54.0°F12.2°C 85% Calm Calm -- 30.14 in1020.7 mb 0.00 in0.0 mm 0.00 in0.0 mm 0.00 in0.0 mm
12:05 AM 58.3°F14.6°C 54.1°F12.3°C 86% Calm Calm -- 30.15 in1021.0 mb 0.00 in0.0 mm 0.00 in0.0 mm 0.00 in0.0 mm
12:10 AM 58.3°F14.6°C 54.1°F12.3°C 86% Calm Calm -- 30.15 in1021.0 mb 0.00 in0.0 mm 0.00 in0.0 mm 0.00 in0.0 mm
12:15 AM 58.2°F14.6°C 54.0°F12.2°C 86% Calm Calm -- 30.15 in1021.0 mb 0.00 in0.0 mm 0.00 in0.0 mm 0.00 in0.0 mm
12:20 AM 58.1°F14.5°C 53.9°F12.2°C 86% Calm Calm -- 30.15 in1021.0 mb 0.00 in0.0 mm 0.00 in0.0 mm 0.00 in0.0 mm
12:25 AM 58.0°F14.4°C 53.8°F12.1°C 86% Calm Calm -- 30.15 in1021.0 mb 0.00 in0.0 mm 0.00 in0.0 mm 0.00 in0.0 mm
12:30 AM 57.8°F14.3°C 53.9°F12.2°C 87% Calm Calm -- 30.15 in1021.0 mb 0.00 in0.0 mm 0.00 in0.0 mm 0.00 in0.0 mm
12:35 AM 57.7°F14.3°C 53.8°F12.1°C 87% 4.0 mph S6.4 kmh S 4.0 mph6.4 kmh 30.15 in1021.0 mb 0.00 in0.0 mm 0.00 in0.0 mm 0.00 in0.0 mm
12:40 AM 57.7°F14.3°C 53.8°F12.1°C 87% 2.0 mph S3.2 kmh S 4.0 mph6.4 kmh 30.15 in1021.0 mb 0.00 in0.0 mm 0.00 in0.0 mm 0.00 in0.0 mm
12:45 AM 57.7°F14.3°C 53.8°F12.1°C 87% 1.0 mph SSE1.6 kmh SSE 3.0 mph4.8 kmh 30.15 in1021.0 mb 0.00 in0.0 mm 0.00 in0.0 mm 0.00 in0.0 mm
12:50 AM 57.8°F14.3°C 53.6°F12.0°C 86% 1.0 mph SSE1.6 kmh SSE 1.0 mph1.6 kmh 30.15 in1021.0 mb 0.00 in0.0 mm 0.00 in0.0 mm 0.00 in0.0 mm
12:55 AM 57.8°F14.3°C 53.6°F12.0°C 86% Calm Calm 2.0 mph3.2 kmh 30.15 in1021.0 mb 0.00 in0.0 mm 0.00 in0.0 mm 0.00 in0.0 mm
01:00 AM 57.8°F14.3°C 53.6°F12.0°C 86% 1.0 mph SSE1.6 kmh SSE 2.0 mph3.2 kmh 30.14 in1020.7 mb 0.00 in0.0 mm 0.00 in0.0 mm 0.00 in0.0 mm
01:05 AM 57.8°F14.3°C 53.6°F12.0°C 86% 1.0 mph SSE1.6 kmh SSE 3.0 mph4.8 kmh 30.14 in1020.7 mb 0.00 in0.0 mm 0.00 in0.0 mm 0.00 in0.0 mm
01:10 AM 57.7°F14.3°C 53.5°F11.9°C 86% 2.0 mph SSW3.2 kmh SSW 3.0 mph4.8 kmh 30.14 in1020.7 mb 0.00 in0.0 mm 0.00 in0.0 mm 0.00 in0.0 mm
01:15 AM 57.4°F14.1°C 53.2°F11.8°C 86% 3.0 mph S4.8 kmh S 4.0 mph6.4 kmh 30.14 in1020.7 mb 0.00 in0.0 mm 0.00 in0.0 mm 0.00 in0.0 mm
01:20 AM 57.3°F14.1°C 53.4°F11.9°C 87% 3.0 mph S4.8 kmh S 4.0 mph6.4 kmh 30.14 in1020.7 mb 0.00 in0.0 mm 0.00 in0.0 mm 0.00 in0.0 mm
01:25 AM 57.2°F14.0°C 53.3°F11.8°C 87% 3.0 mph SSE4.8 kmh SSE 4.0 mph6.4 kmh 30.14 in1020.7 mb 0.00 in0.0 mm 0.00 in0.0 mm 0.00 in0.0 mm
01:30 AM 57.1°F13.9°C 53.2°F11.8°C 87% 1.0 mph SSE1.6 kmh SSE 3.0 mph4.8 kmh 30.14 in1020.7 mb 0.00 in0.0 mm 0.00 in0.0 mm 0.00 in0.0 mm
01:35 AM 57.0°F13.9°C 53.1°F11.7°C 87% 1.0 mph S1.6 kmh S 3.0 mph4.8 kmh 30.14 in1020.7 mb 0.00 in0.0 mm 0.00 in0.0 mm 0.00 in0.0 mm
01:40 AM 57.0°F13.9°C 53.4°F11.9°C 88% 2.0 mph S3.2 kmh S 3.0 mph4.8 kmh 30.14 in1020.7 mb 0.00 in0.0 mm 0.00 in0.0 mm 0.00 in0.0 mm
01:45 AM 56.9°F13.8°C 53.3°F11.8°C 88% 2.0 mph SSE3.2 kmh SSE 3.0 mph4.8 kmh 30.14 in1020.7 mb 0.00 in0.0 mm 0.00 in0.0 mm 0.00 in0.0 mm
01:50 AM 56.8°F13.8°C 53.2°F11.8°C 88% 2.0 mph SSE3.2 kmh SSE 3.0 mph4.8 kmh 30.14 in1020.7 mb 0.00 in0.0 mm 0.00 in0.0 mm 0.00 in0.0 mm
01:55 AM 56.8°F13.8°C 53.2°F11.8°C 88% 2.0 mph SSE3.2 kmh SSE 4.0 mph6.4 kmh 30.14 in1020.7 mb 0.00 in0.0 mm 0.00 in0.0 mm 0.00 in0.0 mm
02:00 AM 56.8°F13.8°C 53.2°F11.8°C 88% 2.0 mph SE3.2 kmh SE 3.0 mph4.8 kmh 30.14 in1020.7 mb 0.00 in0.0 mm 0.00 in0.0 mm 0.00 in0.0 mm
02:05 AM 56.8°F13.8°C 53.2°F11.8°C 88% 2.0 mph SE3.2 kmh SE 3.0 mph4.8 kmh 30.14 in1020.7 mb 0.00 in0.0 mm 0.00 in0.0 mm 0.00 in0.0 mm
02:10 AM 56.8°F13.8°C 53.2°F11.8°C 88% 2.0 mph SE3.2 kmh SE 3.0 mph4.8 kmh 30.13 in1020.3 mb 0.00 in0.0 mm 0.00 in0.0 mm 0.00 in0.0 mm
02:15 AM 56.7°F13.7°C 53.1°F11.7°C 88% 1.0 mph SSE1.6 kmh SSE 4.0 mph6.4 kmh 30.14 in1020.7 mb 0.00 in0.0 mm 0.00 in0.0 mm 0.00 in0.0 mm
02:20 AM 56.6°F13.7°C 53.0°F11.7°C 88% 2.0 mph SSE3.2 kmh SSE 4.0 mph6.4 kmh 30.14 in1020.7 mb 0.00 in0.0 mm 0.00 in0.0 mm 0.00 in0.0 mm
02:25 AM 56.5°F13.6°C 52.9°F11.6°C 88% 2.0 mph S3.2 kmh S 3.0 mph4.8 kmh 30.14 in1020.7 mb 0.00 in0.0 mm 0.00 in0.0 mm 0.00 in0.0 mm
02:30 AM 56.4°F13.6°C 52.8°F11.6°C 88% 1.0 mph SSE1.6 kmh SSE 3.0 mph4.8 kmh 30.14 in1020.7 mb 0.00 in0.0 mm 0.00 in0.0 mm 0.00 in0.0 mm
02:35 AM 56.4°F13.6°C 52.8°F11.6°C 88% 1.0 mph S1.6 kmh S 3.0 mph4.8 kmh 30.14 in1020.7 mb 0.00 in0.0 mm 0.00 in0.0 mm 0.00 in0.0 mm
02:40 AM 56.4°F13.6°C 52.8°F11.6°C 88% Calm Calm 2.0 mph3.2 kmh 30.14 in1020.7 mb 0.00 in0.0 mm 0.00 in0.0 mm 0.00 in0.0 mm
02:45 AM 56.4°F13.6°C 52.8°F11.6°C 88% 2.0 mph S3.2 kmh S 2.0 mph3.2 kmh 30.14 in1020.7 mb 0.00 in0.0 mm 0.00 in0.0 mm 0.00 in0.0 mm
02:50 AM 56.3°F13.5°C 52.7°F11.5°C 88% 1.0 mph S1.6 kmh S 3.0 mph4.8 kmh 30.14 in1020.7 mb 0.00 in0.0 mm 0.00 in0.0 mm 0.00 in0.0 mm
02:55 AM 56.3°F13.5°C 52.7°F11.5°C 88% 1.0 mph S1.6 kmh S 2.0 mph3.2 kmh 30.14 in1020.7 mb 0.00 in0.0 mm 0.00 in0.0 mm 0.00 in0.0 mm
03:00 AM 56.1°F13.4°C 52.5°F11.4°C 88% 1.0 mph S1.6 kmh S 2.0 mph3.2 kmh 30.14 in1020.7 mb 0.00 in0.0 mm 0.00 in0.0 mm 0.00 in0.0 mm
03:05 AM 56.0°F13.3°C 52.8°F11.6°C 89% Calm Calm 3.0 mph4.8 kmh 30.13 in1020.3 mb 0.00 in0.0 mm 0.00 in0.0 mm 0.00 in0.0 mm
03:10 AM 56.0°F13.3°C 52.8°F11.6°C 89% 2.0 mph S3.2 kmh S 2.0 mph3.2 kmh 30.14 in1020.7 mb 0.00 in0.0 mm 0.00 in0.0 mm 0.00 in0.0 mm
03:15 AM 55.9°F13.3°C 52.3°F11.3°C 88% 1.0 mph S1.6 kmh S 2.0 mph3.2 kmh 30.13 in1020.3 mb 0.00 in0.0 mm 0.00 in0.0 mm 0.00 in0.0 mm
03:20 AM 55.9°F13.3°C 52.7°F11.5°C 89% 1.0 mph S1.6 kmh S 2.0 mph3.2 kmh 30.13 in1020.3 mb 0.00 in0.0 mm 0.00 in0.0 mm 0.00 in0.0 mm
03:25 AM 55.8°F13.2°C 52.6°F11.4°C 89% 2.0 mph SSE3.2 kmh SSE 3.0 mph4.8 kmh 30.13 in1020.3 mb 0.00 in0.0 mm 0.00 in0.0 mm 0.00 in0.0 mm
03:30 AM 55.8°F13.2°C 52.6°F11.4°C 89% Calm Calm 2.0 mph3.2 kmh 30.13 in1020.3 mb 0.00 in0.0 mm 0.00 in0.0 mm 0.00 in0.0 mm
03:35 AM 55.8°F13.2°C 52.6°F11.4°C 89% Calm Calm 1.0 mph1.6 kmh 30.13 in1020.3 mb 0.00 in0.0 mm 0.00 in0.0 mm 0.00 in0.0 mm
03:40 AM 55.8°F13.2°C 52.6°F11.4°C 89% Calm Calm 2.0 mph3.2 kmh 30.13 in1020.3 mb 0.00 in0.0 mm 0.00 in0.0 mm 0.00 in0.0 mm
03:45 AM 55.7°F13.2°C 52.5°F11.4°C 89% Calm Calm 1.0 mph1.6 kmh 30.13 in1020.3 mb 0.00 in0.0 mm 0.00 in0.0 mm 0.00 in0.0 mm
03:50 AM 55.8°F13.2°C 52.2°F11.2°C 88% 2.0 mph SSE3.2 kmh SSE 2.0 mph3.2 kmh 30.13 in1020.3 mb 0.00 in0.0 mm 0.00 in0.0 mm 0.00 in0.0 mm
03:55 AM 55.8°F13.2°C 52.2°F11.2°C 88% Calm Calm 2.0 mph3.2 kmh 30.13 in1020.3 mb 0.00 in0.0 mm 0.00 in0.0 mm 0.00 in0.0 mm
04:00 AM 55.7°F13.2°C 52.1°F11.2°C 88% Calm Calm 1.0 mph1.6 kmh 30.13 in1020.3 mb 0.00 in0.0 mm 0.00 in0.0 mm 0.00 in0.0 mm
04:05 AM 55.8°F13.2°C 52.2°F11.2°C 88% Calm Calm 1.0 mph1.6 kmh 30.13 in1020.3 mb 0.00 in0.0 mm 0.00 in0.0 mm 0.00 in0.0 mm
04:15 AM 55.7°F13.2°C 52.1°F11.2°C 88% Calm Calm 1.0 mph1.6 kmh 30.13 in1020.3 mb 0.00 in0.0 mm 0.00 in0.0 mm 0.00 in0.0 mm
04:20 AM 55.6°F13.1°C 52.1°F11.2°C 88% 1.0 mph SSE1.6 kmh SSE 1.0 mph1.6 kmh 30.13 in1020.3 mb 0.00 in0.0 mm 0.00 in0.0 mm 0.00 in0.0 mm
04:25 AM 55.6°F13.1°C 51.7°F10.9°C 87% 1.0 mph SSE1.6 kmh SSE 1.0 mph1.6 kmh 30.13 in1020.3 mb 0.00 in0.0 mm 0.00 in0.0 mm 0.00 in0.0 mm
04:30 AM 55.5°F13.1°C 52.0°F11.1°C 88% Calm Calm 1.0 mph1.6 kmh 30.13 in1020.3 mb 0.00 in0.0 mm 0.00 in0.0 mm 0.00 in0.0 mm
04:35 AM 55.5°F13.1°C 52.0°F11.1°C 88% Calm Calm -- 30.13 in1020.3 mb 0.00 in0.0 mm 0.00 in0.0 mm 0.00 in0.0 mm
04:40 AM 55.4°F13.0°C 51.5°F10.8°C 87% Calm Calm -- 30.13 in1020.3 mb 0.00 in0.0 mm 0.00 in0.0 mm 0.00 in0.0 mm
04:45 AM 55.4°F13.0°C 51.9°F11.1°C 88% Calm Calm -- 30.13 in1020.3 mb 0.00 in0.0 mm 0.00 in0.0 mm 0.00 in0.0 mm
04:50 AM 55.4°F13.0°C 51.9°F11.1°C 88% Calm Calm -- 30.13 in1020.3 mb 0.00 in0.0 mm 0.00 in0.0 mm 0.00 in0.0 mm
04:55 AM 55.4°F13.0°C 51.9°F11.1°C 88% Calm Calm -- 30.13 in1020.3 mb 0.00 in0.0 mm 0.00 in0.0 mm 0.00 in0.0 mm
05:00 AM 55.3°F12.9°C 51.4°F10.8°C 87% Calm Calm -- 30.13 in1020.3 mb 0.00 in0.0 mm 0.00 in0.0 mm 0.00 in0.0 mm
05:05 AM 55.1°F12.8°C 51.2°F10.7°C 87% Calm Calm -- 30.14 in1020.7 mb 0.00 in0.0 mm 0.00 in0.0 mm 0.00 in0.0 mm
05:10 AM 55.1°F12.8°C 51.2°F10.7°C 87% Calm Calm -- 30.14 in1020.7 mb 0.00 in0.0 mm 0.00 in0.0 mm 0.00 in0.0 mm
05:15 AM 55.0°F12.8°C 51.5°F10.8°C 88% Calm Calm -- 30.14 in1020.7 mb 0.00 in0.0 mm 0.00 in0.0 mm 0.00 in0.0 mm
05:20 AM 54.9°F12.7°C 51.4°F10.8°C 88% Calm Calm 1.0 mph1.6 kmh 30.14 in1020.7 mb 0.00 in0.0 mm 0.00 in0.0 mm 0.00 in0.0 mm
05:25 AM 54.9°F12.7°C 51.4°F10.8°C 88% Calm Calm 1.0 mph1.6 kmh 30.14 in1020.7 mb 0.00 in0.0 mm 0.00 in0.0 mm 0.00 in0.0 mm
05:30 AM 54.9°F12.7°C 51.4°F10.8°C 88% Calm Calm 1.0 mph1.6 kmh 30.15 in1021.0 mb 0.00 in0.0 mm 0.00 in0.0 mm 0.00 in0.0 mm
05:35 AM 54.7°F12.6°C 51.2°F10.7°C 88% Calm Calm 2.0 mph3.2 kmh 30.15 in1021.0 mb 0.00 in0.0 mm 0.00 in0.0 mm 0.00 in0.0 mm
05:40 AM 54.6°F12.6°C 51.4°F10.8°C 89% Calm Calm -- 30.15 in1021.0 mb 0.00 in0.0 mm 0.00 in0.0 mm 0.00 in0.0 mm
05:45 AM 54.6°F12.6°C 51.4°F10.8°C 89% Calm Calm -- 30.15 in1021.0 mb 0.00 in0.0 mm 0.00 in0.0 mm 0.00 in0.0 mm
05:50 AM 54.5°F12.5°C 51.3°F10.7°C 89% Calm Calm -- 30.15 in1021.0 mb 0.00 in0.0 mm 0.00 in0.0 mm 0.00 in0.0 mm
05:55 AM 54.6°F12.6°C 51.4°F10.8°C 89% 1.0 mph SSE1.6 kmh SSE 2.0 mph3.2 kmh 30.15 in1021.0 mb 0.00 in0.0 mm 0.00 in0.0 mm 0.00 in0.0 mm
06:00 AM 54.6°F12.6°C 51.4°F10.8°C 89% 2.0 mph SSE3.2 kmh SSE 2.0 mph3.2 kmh 30.16 in1021.3 mb 0.00 in0.0 mm 0.00 in0.0 mm 0.00 in0.0 mm
06:05 AM 54.5°F12.5°C 51.3°F10.7°C 89% 1.0 mph SSE1.6 kmh SSE 3.0 mph4.8 kmh 30.17 in1021.7 mb 0.00 in0.0 mm 0.00 in0.0 mm 0.00 in0.0 mm
06:10 AM 54.4°F12.4°C 51.2°F10.7°C 89% 1.0 mph SSE1.6 kmh SSE 3.0 mph4.8 kmh 30.17 in1021.7 mb 0.00 in0.0 mm 0.00 in0.0 mm 0.00 in0.0 mm
06:15 AM 54.5°F12.5°C 51.6°F10.9°C 90% 1.0 mph SSE1.6 kmh SSE 3.0 mph4.8 kmh 30.17 in1021.7 mb 0.00 in0.0 mm 0.00 in0.0 mm 0.00 in0.0 mm
06:20 AM 54.5°F12.5°C 51.6°F10.9°C 90% 3.0 mph SSE4.8 kmh SSE 4.0 mph6.4 kmh 30.17 in1021.7 mb 0.00 in0.0 mm 0.00 in0.0 mm 0.00 in0.0 mm
06:25 AM 54.6°F12.6°C 51.7°F10.9°C 90% 2.0 mph SSE3.2 kmh SSE 3.0 mph4.8 kmh 30.17 in1021.7 mb 0.00 in0.0 mm 0.00 in0.0 mm 0.00 in0.0 mm
06:30 AM 54.8°F12.7°C 51.9°F11.1°C 90% 1.0 mph SE1.6 kmh SE 4.0 mph6.4 kmh 30.17 in1021.7 mb 0.00 in0.0 mm 0.00 in0.0 mm 0.00 in0.0 mm
06:35 AM 54.8°F12.7°C 51.9°F11.1°C 90% 3.0 mph SSE4.8 kmh SSE 4.0 mph6.4 kmh 30.17 in1021.7 mb 0.00 in0.0 mm 0.00 in0.0 mm 0.00 in0.0 mm
06:40 AM 55.0°F12.8°C 52.1°F11.2°C 90% 2.0 mph SE3.2 kmh SE 4.0 mph6.4 kmh 30.17 in1021.7 mb 0.00 in0.0 mm 0.00 in0.0 mm 0.00 in0.0 mm
06:45 AM 55.2°F12.9°C 52.3°F11.3°C 90% Calm Calm 2.0 mph3.2 kmh 30.17 in1021.7 mb 0.00 in0.0 mm 0.00 in0.0 mm 0.00 in0.0 mm
06:50 AM 55.4°F13.0°C 52.5°F11.4°C 90% 1.0 mph SSE1.6 kmh SSE 2.0 mph3.2 kmh 30.18 in1022.0 mb 0.00 in0.0 mm 0.00 in0.0 mm 0.00 in0.0 mm
06:55 AM 55.7°F13.2°C 52.8°F11.6°C 90% Calm Calm 2.0 mph3.2 kmh 30.17 in1021.7 mb 0.00 in0.0 mm 0.00 in0.0 mm 0.00 in0.0 mm
07:00 AM 56.0°F13.3°C 52.8°F11.6°C 89% 1.0 mph SSE1.6 kmh SSE 2.0 mph3.2 kmh 30.18 in1022.0 mb 0.00 in0.0 mm 0.00 in0.0 mm 0.00 in0.0 mm
07:05 AM 56.3°F13.5°C 53.0°F11.7°C 89% 2.0 mph SSW3.2 kmh SSW 3.0 mph4.8 kmh 30.19 in1022.4 mb 0.00 in0.0 mm 0.00 in0.0 mm 0.00 in0.0 mm
07:10 AM 56.8°F13.8°C 53.5°F11.9°C 89% 2.0 mph SSW3.2 kmh SSW 3.0 mph4.8 kmh 30.19 in1022.4 mb 0.00 in0.0 mm 0.00 in0.0 mm 0.00 in0.0 mm
07:15 AM 57.3°F14.1°C 53.7°F12.1°C 88% 3.0 mph SSW4.8 kmh SSW 4.0 mph6.4 kmh 30.18 in1022.0 mb 0.00 in0.0 mm 0.00 in0.0 mm 0.00 in0.0 mm
07:20 AM 57.8°F14.3°C 54.2°F12.3°C 88% 1.0 mph SSW1.6 kmh SSW 5.0 mph8.0 kmh 30.19 in1022.4 mb 0.00 in0.0 mm 0.00 in0.0 mm 0.00 in0.0 mm
07:25 AM 58.5°F14.7°C 54.9°F12.7°C 88% 4.0 mph SSW6.4 kmh SSW 4.0 mph6.4 kmh 30.19 in1022.4 mb 0.00 in0.0 mm 0.00 in0.0 mm 0.00 in0.0 mm
07:30 AM 59.1°F15.1°C 55.2°F12.9°C 87% 5.0 mph S8.0 kmh S 5.0 mph8.0 kmh 30.18 in1022.0 mb 0.00 in0.0 mm 0.00 in0.0 mm 0.00 in0.0 mm
07:35 AM 59.4°F15.2°C 55.2°F12.9°C 86% 4.0 mph SW6.4 kmh SW 6.0 mph9.7 kmh 30.18 in1022.0 mb 0.00 in0.0 mm 0.00 in0.0 mm 0.00 in0.0 mm
07:40 AM 59.7°F15.4°C 55.5°F13.1°C 86% 2.0 mph SSW3.2 kmh SSW 4.0 mph6.4 kmh 30.18 in1022.0 mb 0.00 in0.0 mm 0.00 in0.0 mm 0.00 in0.0 mm
07:45 AM 59.9°F15.5°C 55.6°F13.1°C 86% 2.0 mph SSW3.2 kmh SSW 4.0 mph6.4 kmh 30.18 in1022.0 mb 0.00 in0.0 mm 0.00 in0.0 mm 0.00 in0.0 mm
07:50 AM 60.1°F15.6°C 55.8°F13.2°C 86% 5.0 mph SSW8.0 kmh SSW 6.0 mph9.7 kmh 30.18 in1022.0 mb 0.00 in0.0 mm 0.00 in0.0 mm 0.00 in0.0 mm
07:55 AM 60.5°F15.8°C 56.2°F13.4°C 86% Calm Calm 6.0 mph9.7 kmh 30.18 in1022.0 mb 0.00 in0.0 mm 0.00 in0.0 mm 0.00 in0.0 mm
08:00 AM 60.8°F16.0°C 56.2°F13.4°C 85% 1.0 mph S1.6 kmh S 4.0 mph6.4 kmh 30.18 in1022.0 mb 0.00 in0.0 mm 0.00 in0.0 mm 0.00 in0.0 mm
08:05 AM 61.2°F16.2°C 56.6°F13.7°C 85% 3.0 mph S4.8 kmh S 5.0 mph8.0 kmh 30.18 in1022.0 mb 0.00 in0.0 mm 0.00 in0.0 mm 0.00 in0.0 mm
08:10 AM 61.7°F16.5°C 56.8°F13.8°C 84% 3.0 mph S4.8 kmh S 5.0 mph8.0 kmh 30.18 in1022.0 mb 0.00 in0.0 mm 0.00 in0.0 mm 0.00 in0.0 mm
08:15 AM 62.0°F16.7°C 57.1°F13.9°C 84% 3.0 mph SW4.8 kmh SW 6.0 mph9.7 kmh 30.18 in1022.0 mb 0.00 in0.0 mm 0.00 in0.0 mm 0.00 in0.0 mm
08:20 AM 62.5°F16.9°C 57.2°F14.0°C 83% 3.0 mph S4.8 kmh S 5.0 mph8.0 kmh 30.18 in1022.0 mb 0.00 in0.0 mm 0.00 in0.0 mm 0.00 in0.0 mm
08:25 AM 62.9°F17.2°C 57.6°F14.2°C 83% 1.0 mph SSW1.6 kmh SSW 5.0 mph8.0 kmh 30.18 in1022.0 mb 0.00 in0.0 mm 0.00 in0.0 mm 0.00 in0.0 mm
08:30 AM 63.4°F17.4°C 57.8°F14.3°C 82% 5.0 mph SW8.0 kmh SW 6.0 mph9.7 kmh 30.18 in1022.0 mb 0.00 in0.0 mm 0.00 in0.0 mm 0.00 in0.0 mm
08:35 AM 63.8°F17.7°C 57.5°F14.2°C 80% 3.0 mph SW4.8 kmh SW 7.0 mph11.3 kmh 30.18 in1022.0 mb 0.00 in0.0 mm 0.00 in0.0 mm 0.00 in0.0 mm
08:40 AM 64.1°F17.8°C 57.4°F14.1°C 79% 3.0 mph SW4.8 kmh SW 7.0 mph11.3 kmh 30.18 in1022.0 mb 0.00 in0.0 mm 0.00 in0.0 mm 0.00 in0.0 mm
08:45 AM 64.4°F18.0°C 57.7°F14.3°C 79% 6.0 mph S9.7 kmh S 9.0 mph14.5 kmh 30.18 in1022.0 mb 0.00 in0.0 mm 0.00 in0.0 mm 0.00 in0.0 mm
08:50 AM 64.7°F18.2°C 57.3°F14.1°C 77% 2.0 mph S3.2 kmh S 9.0 mph14.5 kmh 30.18 in1022.0 mb 0.00 in0.0 mm 0.00 in0.0 mm 0.00 in0.0 mm
08:55 AM 65.0°F18.3°C 57.9°F14.4°C 78% 1.0 mph SW1.6 kmh SW 7.0 mph11.3 kmh 30.18 in1022.0 mb 0.00 in0.0 mm 0.00 in0.0 mm 0.00 in0.0 mm
09:00 AM 65.4°F18.6°C 57.6°F14.2°C 76% 3.0 mph SSW4.8 kmh SSW 5.0 mph8.0 kmh 30.18 in1022.0 mb 0.00 in0.0 mm 0.00 in0.0 mm 0.00 in0.0 mm
09:05 AM 65.6°F18.7°C 57.8°F14.3°C 76% 2.0 mph SW3.2 kmh SW 6.0 mph9.7 kmh 30.19 in1022.4 mb 0.00 in0.0 mm 0.00 in0.0 mm 0.00 in0.0 mm
09:10 AM 66.0°F18.9°C 57.4°F14.1°C 74% 4.0 mph SSW6.4 kmh SSW 6.0 mph9.7 kmh 30.19 in1022.4 mb 0.00 in0.0 mm 0.00 in0.0 mm 0.00 in0.0 mm
09:15 AM 66.3°F19.1°C 58.1°F14.5°C 75% 3.0 mph WSW4.8 kmh WSW 6.0 mph9.7 kmh 30.19 in1022.4 mb 0.00 in0.0 mm 0.00 in0.0 mm 0.00 in0.0 mm
09:20 AM 66.7°F19.3°C 58.1°F14.5°C 74% 3.0 mph WSW4.8 kmh WSW 6.0 mph9.7 kmh 30.19 in1022.4 mb 0.00 in0.0 mm 0.00 in0.0 mm 0.00 in0.0 mm
09:25 AM 67.0°F19.4°C 57.6°F14.2°C 72% 2.0 mph SW3.2 kmh SW 6.0 mph9.7 kmh 30.19 in1022.4 mb 0.00 in0.0 mm 0.00 in0.0 mm 0.00 in0.0 mm
09:30 AM 67.3°F19.6°C 58.7°F14.8°C 74% 2.0 mph SW3.2 kmh SW 5.0 mph8.0 kmh 30.19 in1022.4 mb 0.00 in0.0 mm 0.00 in0.0 mm 0.00 in0.0 mm
09:35 AM 67.7°F19.8°C 58.3°F14.6°C 72% 3.0 mph WSW4.8 kmh WSW 5.0 mph8.0 kmh 30.19 in1022.4 mb 0.00 in0.0 mm 0.00 in0.0 mm 0.00 in0.0 mm
09:40 AM 68.1°F20.1°C 59.1°F15.1°C 73% 1.0 mph WNW1.6 kmh WNW 6.0 mph9.7 kmh 30.19 in1022.4 mb 0.00 in0.0 mm 0.00 in0.0 mm 0.00 in0.0 mm
09:45 AM 68.4°F20.2°C 58.6°F14.8°C 71% 3.0 mph WSW4.8 kmh WSW 7.0 mph11.3 kmh 30.19 in1022.4 mb 0.00 in0.0 mm 0.00 in0.0 mm 0.00 in0.0 mm
09:50 AM 68.7°F20.4°C 58.5°F14.7°C 70% 4.0 mph WSW6.4 kmh WSW 7.0 mph11.3 kmh 30.19 in1022.4 mb 0.00 in0.0 mm 0.00 in0.0 mm 0.00 in0.0 mm
09:55 AM 68.9°F20.5°C 59.0°F15.0°C 71% 3.0 mph WSW4.8 kmh WSW 6.0 mph9.7 kmh 30.19 in1022.4 mb 0.00 in0.0 mm 0.00 in0.0 mm 0.00 in0.0 mm
10:00 AM 69.0°F20.6°C 58.7°F14.8°C 70% Calm Calm 4.0 mph6.4 kmh 30.19 in1022.4 mb 0.00 in0.0 mm 0.00 in0.0 mm 0.00 in0.0 mm
10:05 AM 69.2°F20.7°C 58.9°F14.9°C 70% 2.0 mph SW3.2 kmh SW 6.0 mph9.7 kmh 30.19 in1022.4 mb 0.00 in0.0 mm 0.00 in0.0 mm 0.00 in0.0 mm
10:10 AM 69.4°F20.8°C 59.1°F15.1°C 70% 2.0 mph WSW3.2 kmh WSW 5.0 mph8.0 kmh 30.19 in1022.4 mb 0.00 in0.0 mm 0.00 in0.0 mm 0.00 in0.0 mm
10:15 AM 69.8°F21.0°C 59.9°F15.5°C 71% 2.0 mph WSW3.2 kmh WSW 3.0 mph4.8 kmh 30.18 in1022.0 mb 0.00 in0.0 mm 0.00 in0.0 mm 0.00 in0.0 mm
10:20 AM 70.4°F21.3°C 60.1°F15.6°C 70% Calm Calm 4.0 mph6.4 kmh 30.18 in1022.0 mb 0.00 in0.0 mm 0.00 in0.0 mm 0.00 in0.0 mm
10:25 AM 71.0°F21.7°C 59.8°F15.4°C 68% 4.0 mph WNW6.4 kmh WNW 6.0 mph9.7 kmh 30.18 in1022.0 mb 0.00 in0.0 mm 0.00 in0.0 mm 0.00 in0.0 mm
10:30 AM 71.7°F22.1°C 59.7°F15.4°C 66% 1.0 mph SW1.6 kmh SW 5.0 mph8.0 kmh 30.18 in1022.0 mb 0.00 in0.0 mm 0.00 in0.0 mm 0.00 in0.0 mm
10:35 AM 72.2°F22.3°C 59.3°F15.2°C 64% 2.0 mph SW3.2 kmh SW 6.0 mph9.7 kmh 30.18 in1022.0 mb 0.00 in0.0 mm 0.00 in0.0 mm 0.00 in0.0 mm
10:40 AM 72.8°F22.7°C 59.8°F15.4°C 64% 4.0 mph SW6.4 kmh SW 5.0 mph8.0 kmh 30.18 in1022.0 mb 0.00 in0.0 mm 0.00 in0.0 mm 0.00 in0.0 mm
10:50 AM 73.8°F23.2°C 59.9°F15.5°C 62% 1.0 mph SW1.6 kmh SW 2.0 mph3.2 kmh 30.17 in1021.7 mb 0.00 in0.0 mm 0.00 in0.0 mm 0.00 in0.0 mm
10:55 AM 73.8°F23.2°C 59.4°F15.2°C 61% 1.0 mph W1.6 kmh W 5.0 mph8.0 kmh 30.17 in1021.7 mb 0.00 in0.0 mm 0.00 in0.0 mm 0.00 in0.0 mm
11:00 AM 74.2°F23.4°C 60.7°F15.9°C 63% 3.0 mph SW4.8 kmh SW 4.0 mph6.4 kmh 30.17 in1021.7 mb 0.00 in0.0 mm 0.00 in0.0 mm 0.00 in0.0 mm
11:05 AM 74.8°F23.8°C 59.9°F15.5°C 60% 5.0 mph WSW8.0 kmh WSW 5.0 mph8.0 kmh 30.17 in1021.7 mb 0.00 in0.0 mm 0.00 in0.0 mm 0.00 in0.0 mm
11:10 AM 74.9°F23.8°C 60.0°F15.6°C 60% 5.0 mph WSW8.0 kmh WSW 6.0 mph9.7 kmh 30.17 in1021.7 mb 0.00 in0.0 mm 0.00 in0.0 mm 0.00 in0.0 mm
11:15 AM 74.6°F23.7°C 58.8°F14.9°C 58% 1.0 mph WSW1.6 kmh WSW 6.0 mph9.7 kmh 30.17 in1021.7 mb 0.00 in0.0 mm 0.00 in0.0 mm 0.00 in0.0 mm
11:20 AM 74.6°F23.7°C 58.8°F14.9°C 58% 1.0 mph SW1.6 kmh SW 5.0 mph8.0 kmh 30.17 in1021.7 mb 0.00 in0.0 mm 0.00 in0.0 mm 0.00 in0.0 mm
11:25 AM 74.9°F23.8°C 60.0°F15.6°C 60% 7.0 mph W11.3 kmh W 7.0 mph11.3 kmh 30.17 in1021.7 mb 0.00 in0.0 mm 0.00 in0.0 mm 0.00 in0.0 mm
11:30 AM 75.5°F24.2°C 60.1°F15.6°C 59% 3.0 mph W4.8 kmh W 6.0 mph9.7 kmh 30.17 in1021.7 mb 0.00 in0.0 mm 0.00 in0.0 mm 0.00 in0.0 mm
11:35 AM 75.8°F24.3°C 58.9°F14.9°C 56% 3.0 mph WSW4.8 kmh WSW 6.0 mph9.7 kmh 30.17 in1021.7 mb 0.00 in0.0 mm 0.00 in0.0 mm 0.00 in0.0 mm
11:40 AM 75.9°F24.4°C 59.0°F15.0°C 56% 1.0 mph NW1.6 kmh NW 6.0 mph9.7 kmh 30.17 in1021.7 mb 0.00 in0.0 mm 0.00 in0.0 mm 0.00 in0.0 mm
11:45 AM 76.1°F24.5°C 58.2°F14.6°C 54% 5.0 mph WSW8.0 kmh WSW 9.0 mph14.5 kmh 30.17 in1021.7 mb 0.00 in0.0 mm 0.00 in0.0 mm 0.00 in0.0 mm
11:50 AM 76.6°F24.8°C 58.1°F14.5°C 53% 2.0 mph WSW3.2 kmh WSW 7.0 mph11.3 kmh 30.17 in1021.7 mb 0.00 in0.0 mm 0.00 in0.0 mm 0.00 in0.0 mm
11:55 AM 77.0°F25.0°C 58.0°F14.4°C 52% 6.0 mph WSW9.7 kmh WSW 7.0 mph11.3 kmh 30.17 in1021.7 mb 0.00 in0.0 mm 0.00 in0.0 mm 0.00 in0.0 mm
12:00 PM 77.4°F25.2°C 58.9°F14.9°C 53% 1.0 mph NW1.6 kmh NW 5.0 mph8.0 kmh 30.17 in1021.7 mb 0.00 in0.0 mm 0.00 in0.0 mm 0.00 in0.0 mm
12:05 PM 77.6°F25.3°C 60.1°F15.6°C 55% 4.0 mph WSW6.4 kmh WSW 9.0 mph14.5 kmh 30.16 in1021.3 mb 0.00 in0.0 mm 0.00 in0.0 mm 0.00 in0.0 mm
12:10 PM 77.9°F25.5°C 58.8°F14.9°C 52% 4.0 mph W6.4 kmh W 9.0 mph14.5 kmh 30.17 in1021.7 mb 0.00 in0.0 mm 0.00 in0.0 mm 0.00 in0.0 mm
12:15 PM 78.0°F25.6°C 58.9°F14.9°C 52% 2.0 mph NW3.2 kmh NW 6.0 mph9.7 kmh 30.16 in1021.3 mb 0.00 in0.0 mm 0.00 in0.0 mm 0.00 in0.0 mm
12:20 PM 78.2°F25.7°C 59.1°F15.1°C 52% 3.0 mph WNW4.8 kmh WNW 6.0 mph9.7 kmh 30.16 in1021.3 mb 0.00 in0.0 mm 0.00 in0.0 mm 0.00 in0.0 mm
12:25 PM 78.4°F25.8°C 58.1°F14.5°C 50% 4.0 mph SW6.4 kmh SW 6.0 mph9.7 kmh 30.16 in1021.3 mb 0.00 in0.0 mm 0.00 in0.0 mm 0.00 in0.0 mm
12:30 PM 78.6°F25.9°C 58.3°F14.6°C 50% 3.0 mph WSW4.8 kmh WSW 7.0 mph11.3 kmh 30.16 in1021.3 mb 0.00 in0.0 mm 0.00 in0.0 mm 0.00 in0.0 mm
12:35 PM 78.3°F25.7°C 58.6°F14.8°C 51% 4.0 mph W6.4 kmh W 7.0 mph11.3 kmh 30.16 in1021.3 mb 0.00 in0.0 mm 0.00 in0.0 mm 0.00 in0.0 mm
12:40 PM 78.3°F25.7°C 59.2°F15.1°C 52% 6.0 mph W9.7 kmh W 10.0 mph16.1 kmh 30.16 in1021.3 mb 0.00 in0.0 mm 0.00 in0.0 mm 0.00 in0.0 mm
12:45 PM 78.9°F26.1°C 59.2°F15.1°C 51% 6.0 mph N9.7 kmh N 6.0 mph9.7 kmh 30.16 in1021.3 mb 0.00 in0.0 mm 0.00 in0.0 mm 0.00 in0.0 mm
12:50 PM 78.9°F26.1°C 58.0°F14.4°C 49% Calm Calm 10.0 mph16.1 kmh 30.16 in1021.3 mb 0.00 in0.0 mm 0.00 in0.0 mm 0.00 in0.0 mm
12:55 PM 78.8°F26.0°C 58.5°F14.7°C 50% 5.0 mph SW8.0 kmh SW 10.0 mph16.1 kmh 30.16 in1021.3 mb 0.00 in0.0 mm 0.00 in0.0 mm 0.00 in0.0 mm
01:00 PM 78.7°F25.9°C 57.9°F14.4°C 49% 4.0 mph WNW6.4 kmh WNW 10.0 mph16.1 kmh 30.16 in1021.3 mb 0.00 in0.0 mm 0.00 in0.0 mm 0.00 in0.0 mm
01:05 PM 79.2°F26.2°C 58.9°F14.9°C 50% 4.0 mph WSW6.4 kmh WSW 9.0 mph14.5 kmh 30.16 in1021.3 mb 0.00 in0.0 mm 0.00 in0.0 mm 0.00 in0.0 mm
01:10 PM 79.6°F26.4°C 57.5°F14.2°C 47% 5.0 mph W8.0 kmh W 13.0 mph20.9 kmh 30.16 in1021.3 mb 0.00 in0.0 mm 0.00 in0.0 mm 0.00 in0.0 mm
01:15 PM 79.6°F26.4°C 60.3°F15.7°C 52% 2.0 mph WSW3.2 kmh WSW 9.0 mph14.5 kmh 30.16 in1021.3 mb 0.00 in0.0 mm 0.00 in0.0 mm 0.00 in0.0 mm
01:20 PM 79.9°F26.6°C 56.6°F13.7°C 45% 8.0 mph WSW12.9 kmh WSW 10.0 mph16.1 kmh 30.16 in1021.3 mb 0.00 in0.0 mm 0.00 in0.0 mm 0.00 in0.0 mm
01:25 PM 79.6°F26.4°C 57.5°F14.2°C 47% 5.0 mph WSW8.0 kmh WSW 7.0 mph11.3 kmh 30.16 in1021.3 mb 0.00 in0.0 mm 0.00 in0.0 mm 0.00 in0.0 mm
01:30 PM 79.4°F26.3°C 57.3°F14.1°C 47% 4.0 mph WSW6.4 kmh WSW 11.0 mph17.7 kmh 30.16 in1021.3 mb 0.00 in0.0 mm 0.00 in0.0 mm 0.00 in0.0 mm
01:35 PM 79.0°F26.1°C 56.4°F13.6°C 46% 3.0 mph WSW4.8 kmh WSW 12.0 mph19.3 kmh 30.16 in1021.3 mb 0.00 in0.0 mm 0.00 in0.0 mm 0.00 in0.0 mm
01:40 PM 78.8°F26.0°C 58.0°F14.4°C 49% 4.0 mph W6.4 kmh W 7.0 mph11.3 kmh 30.16 in1021.3 mb 0.00 in0.0 mm 0.00 in0.0 mm 0.00 in0.0 mm
01:45 PM 78.7°F25.9°C 57.3°F14.1°C 48% 9.0 mph WSW14.5 kmh WSW 12.0 mph19.3 kmh 30.16 in1021.3 mb 0.00 in0.0 mm 0.00 in0.0 mm 0.00 in0.0 mm
01:50 PM 78.4°F25.8°C 57.0°F13.9°C 48% 4.0 mph W6.4 kmh W 11.0 mph17.7 kmh 30.16 in1021.3 mb 0.00 in0.0 mm 0.00 in0.0 mm 0.00 in0.0 mm
01:55 PM 78.5°F25.8°C 54.7°F12.6°C 44% 7.0 mph NW11.3 kmh NW 9.0 mph14.5 kmh 30.16 in1021.3 mb 0.00 in0.0 mm 0.00 in0.0 mm 0.00 in0.0 mm
02:00 PM 78.5°F25.8°C 54.1°F12.3°C 43% 5.0 mph WSW8.0 kmh WSW 12.0 mph19.3 kmh 30.16 in1021.3 mb 0.00 in0.0 mm 0.00 in0.0 mm 0.00 in0.0 mm
02:05 PM 78.3°F25.7°C 54.5°F12.5°C 44% 5.0 mph W8.0 kmh W 12.0 mph19.3 kmh 30.16 in1021.3 mb 0.00 in0.0 mm 0.00 in0.0 mm 0.00 in0.0 mm
02:10 PM 78.3°F25.7°C 55.1°F12.8°C 45% 4.0 mph WSW6.4 kmh WSW 12.0 mph19.3 kmh 30.16 in1021.3 mb 0.00 in0.0 mm 0.00 in0.0 mm 0.00 in0.0 mm
02:15 PM 78.4°F25.8°C 55.2°F12.9°C 45% 6.0 mph W9.7 kmh W 9.0 mph14.5 kmh 30.16 in1021.3 mb 0.00 in0.0 mm 0.00 in0.0 mm 0.00 in0.0 mm
02:20 PM 78.8°F26.0°C 55.6°F13.1°C 45% 4.0 mph WNW6.4 kmh WNW 10.0 mph16.1 kmh 30.16 in1021.3 mb 0.00 in0.0 mm 0.00 in0.0 mm 0.00 in0.0 mm
02:25 PM 79.2°F26.2°C 56.0°F13.3°C 45% 4.0 mph W6.4 kmh W 11.0 mph17.7 kmh 30.16 in1021.3 mb 0.00 in0.0 mm 0.00 in0.0 mm 0.00 in0.0 mm
02:30 PM 79.7°F26.5°C 57.0°F13.9°C 46% 6.0 mph WSW9.7 kmh WSW 7.0 mph11.3 kmh 30.15 in1021.0 mb 0.00 in0.0 mm 0.00 in0.0 mm 0.00 in0.0 mm
02:35 PM 80.1°F26.7°C 56.8°F13.8°C 45% 5.0 mph WSW8.0 kmh WSW 7.0 mph11.3 kmh 30.15 in1021.0 mb 0.00 in0.0 mm 0.00 in0.0 mm 0.00 in0.0 mm
02:40 PM 80.4°F26.9°C 57.6°F14.2°C 46% 3.0 mph NW4.8 kmh NW 7.0 mph11.3 kmh 30.15 in1021.0 mb 0.00 in0.0 mm 0.00 in0.0 mm 0.00 in0.0 mm
02:45 PM 80.0°F26.7°C 57.3°F14.1°C 46% 5.0 mph WNW8.0 kmh WNW 11.0 mph17.7 kmh 30.15 in1021.0 mb 0.00 in0.0 mm 0.00 in0.0 mm 0.00 in0.0 mm
02:50 PM 79.6°F26.4°C 58.1°F14.5°C 48% 4.0 mph W6.4 kmh W 10.0 mph16.1 kmh 30.15 in1021.0 mb 0.00 in0.0 mm 0.00 in0.0 mm 0.00 in0.0 mm
02:55 PM 79.4°F26.3°C 56.7°F13.7°C 46% 1.0 mph W1.6 kmh W 10.0 mph16.1 kmh 30.15 in1021.0 mb 0.00 in0.0 mm 0.00 in0.0 mm 0.00 in0.0 mm
03:00 PM 79.5°F26.4°C 56.8°F13.8°C 46% 2.0 mph W3.2 kmh W 5.0 mph8.0 kmh 30.15 in1021.0 mb 0.00 in0.0 mm 0.00 in0.0 mm 0.00 in0.0 mm
03:05 PM 80.1°F26.7°C 58.0°F14.4°C 47% 3.0 mph NW4.8 kmh NW 10.0 mph16.1 kmh 30.15 in1021.0 mb 0.00 in0.0 mm 0.00 in0.0 mm 0.00 in0.0 mm
03:10 PM 80.2°F26.8°C 57.5°F14.2°C 46% 3.0 mph NW4.8 kmh NW 10.0 mph16.1 kmh 30.15 in1021.0 mb 0.00 in0.0 mm 0.00 in0.0 mm 0.00 in0.0 mm
03:15 PM 80.0°F26.7°C 57.3°F14.1°C 46% 5.0 mph WNW8.0 kmh WNW 8.0 mph12.9 kmh 30.15 in1021.0 mb 0.00 in0.0 mm 0.00 in0.0 mm 0.00 in0.0 mm
03:20 PM 79.6°F26.4°C 56.3°F13.5°C 45% 3.0 mph WSW4.8 kmh WSW 7.0 mph11.3 kmh 30.15 in1021.0 mb 0.00 in0.0 mm 0.00 in0.0 mm 0.00 in0.0 mm
03:25 PM 79.2°F26.2°C 56.0°F13.3°C 45% 6.0 mph WNW9.7 kmh WNW 10.0 mph16.1 kmh 30.15 in1021.0 mb 0.00 in0.0 mm 0.00 in0.0 mm 0.00 in0.0 mm
03:30 PM 79.3°F26.3°C 56.0°F13.3°C 45% 5.0 mph W8.0 kmh W 9.0 mph14.5 kmh 30.15 in1021.0 mb 0.00 in0.0 mm 0.00 in0.0 mm 0.00 in0.0 mm
03:35 PM 79.6°F26.4°C 56.3°F13.5°C 45% 4.0 mph WNW6.4 kmh WNW 9.0 mph14.5 kmh 30.14 in1020.7 mb 0.00 in0.0 mm 0.00 in0.0 mm 0.00 in0.0 mm
03:40 PM 79.4°F26.3°C 56.1°F13.4°C 45% 6.0 mph NW9.7 kmh NW 10.0 mph16.1 kmh 30.14 in1020.7 mb 0.00 in0.0 mm 0.00 in0.0 mm 0.00 in0.0 mm
03:45 PM 79.4°F26.3°C 56.1°F13.4°C 45% 1.0 mph WNW1.6 kmh WNW 7.0 mph11.3 kmh 30.14 in1020.7 mb 0.00 in0.0 mm 0.00 in0.0 mm 0.00 in0.0 mm
03:50 PM 79.3°F26.3°C 57.2°F14.0°C 47% 5.0 mph WNW8.0 kmh WNW 7.0 mph11.3 kmh 30.14 in1020.7 mb 0.00 in0.0 mm 0.00 in0.0 mm 0.00 in0.0 mm
03:55 PM 79.4°F26.3°C 57.3°F14.1°C 47% 9.0 mph W14.5 kmh W 9.0 mph14.5 kmh 30.15 in1021.0 mb 0.00 in0.0 mm 0.00 in0.0 mm 0.00 in0.0 mm
04:00 PM 79.7°F26.5°C 55.8°F13.2°C 44% 6.0 mph WSW9.7 kmh WSW 10.0 mph16.1 kmh 30.14 in1020.7 mb 0.00 in0.0 mm 0.00 in0.0 mm 0.00 in0.0 mm
04:05 PM 80.2°F26.8°C 56.9°F13.8°C 45% 5.0 mph NW8.0 kmh NW 8.0 mph12.9 kmh 30.15 in1021.0 mb 0.00 in0.0 mm 0.00 in0.0 mm 0.00 in0.0 mm
04:10 PM 80.4°F26.9°C 56.4°F13.6°C 44% 6.0 mph WNW9.7 kmh WNW 7.0 mph11.3 kmh 30.15 in1021.0 mb 0.00 in0.0 mm 0.00 in0.0 mm 0.00 in0.0 mm
04:15 PM 80.3°F26.8°C 56.3°F13.5°C 44% 4.0 mph WNW6.4 kmh WNW 7.0 mph11.3 kmh 30.15 in1021.0 mb 0.00 in0.0 mm 0.00 in0.0 mm 0.00 in0.0 mm
04:20 PM 80.5°F26.9°C 55.9°F13.3°C 43% 2.0 mph WNW3.2 kmh WNW 10.0 mph16.1 kmh 30.15 in1021.0 mb 0.00 in0.0 mm 0.00 in0.0 mm 0.00 in0.0 mm
04:25 PM 80.2°F26.8°C 55.6°F13.1°C 43% 4.0 mph W6.4 kmh W 11.0 mph17.7 kmh 30.15 in1021.0 mb 0.00 in0.0 mm 0.00 in0.0 mm 0.00 in0.0 mm
04:30 PM 79.3°F26.3°C 56.6°F13.7°C 46% 1.0 mph WNW1.6 kmh WNW 7.0 mph11.3 kmh 30.15 in1021.0 mb 0.00 in0.0 mm 0.00 in0.0 mm 0.00 in0.0 mm
04:35 PM 78.7°F25.9°C 56.1°F13.4°C 46% 2.0 mph WNW3.2 kmh WNW 6.0 mph9.7 kmh 30.15 in1021.0 mb 0.00 in0.0 mm 0.00 in0.0 mm 0.00 in0.0 mm
04:40 PM 78.3°F25.7°C 56.3°F13.5°C 47% 3.0 mph WNW4.8 kmh WNW 7.0 mph11.3 kmh 30.15 in1021.0 mb 0.00 in0.0 mm 0.00 in0.0 mm 0.00 in0.0 mm
04:45 PM 77.9°F25.5°C 56.0°F13.3°C 47% 3.0 mph WNW4.8 kmh WNW 7.0 mph11.3 kmh 30.15 in1021.0 mb 0.00 in0.0 mm 0.00 in0.0 mm 0.00 in0.0 mm
04:50 PM 77.4°F25.2°C 56.1°F13.4°C 48% 3.0 mph WNW4.8 kmh WNW 6.0 mph9.7 kmh 30.15 in1021.0 mb 0.00 in0.0 mm 0.00 in0.0 mm 0.00 in0.0 mm
04:55 PM 77.1°F25.1°C 55.8°F13.2°C 48% 2.0 mph WNW3.2 kmh WNW 5.0 mph8.0 kmh 30.15 in1021.0 mb 0.00 in0.0 mm 0.00 in0.0 mm 0.00 in0.0 mm
05:00 PM 77.2°F25.1°C 56.5°F13.6°C 49% 2.0 mph WNW3.2 kmh WNW 5.0 mph8.0 kmh 30.15 in1021.0 mb 0.00 in0.0 mm 0.00 in0.0 mm 0.00 in0.0 mm
05:05 PM 77.7°F25.4°C 55.8°F13.2°C 47% 2.0 mph W3.2 kmh W 4.0 mph6.4 kmh 30.15 in1021.0 mb 0.00 in0.0 mm 0.00 in0.0 mm 0.00 in0.0 mm
05:10 PM 78.4°F25.8°C 56.4°F13.6°C 47% 3.0 mph W4.8 kmh W 5.0 mph8.0 kmh 30.15 in1021.0 mb 0.00 in0.0 mm 0.00 in0.0 mm 0.00 in0.0 mm
05:15 PM 78.5°F25.8°C 55.9°F13.3°C 46% 1.0 mph NW1.6 kmh NW 4.0 mph6.4 kmh 30.15 in1021.0 mb 0.00 in0.0 mm 0.00 in0.0 mm 0.00 in0.0 mm
05:20 PM 78.5°F25.8°C 55.9°F13.3°C 46% 1.0 mph NW1.6 kmh NW 5.0 mph8.0 kmh 30.15 in1021.0 mb 0.00 in0.0 mm 0.00 in0.0 mm 0.00 in0.0 mm
05:25 PM 78.3°F25.7°C 56.3°F13.5°C 47% 1.0 mph WNW1.6 kmh WNW 4.0 mph6.4 kmh 30.16 in1021.3 mb 0.00 in0.0 mm 0.00 in0.0 mm 0.00 in0.0 mm
05:30 PM 78.0°F25.6°C 56.6°F13.7°C 48% 1.0 mph WNW1.6 kmh WNW 2.0 mph3.2 kmh 30.15 in1021.0 mb 0.00 in0.0 mm 0.00 in0.0 mm 0.00 in0.0 mm
05:35 PM 77.6°F25.3°C 57.4°F14.1°C 50% 1.0 mph WNW1.6 kmh WNW 1.0 mph1.6 kmh 30.15 in1021.0 mb 0.00 in0.0 mm 0.00 in0.0 mm 0.00 in0.0 mm
05:40 PM 77.3°F25.2°C 57.7°F14.3°C 51% Calm Calm 1.0 mph1.6 kmh 30.15 in1021.0 mb 0.00 in0.0 mm 0.00 in0.0 mm 0.00 in0.0 mm
05:45 PM 77.1°F25.1°C 57.5°F14.2°C 51% Calm Calm 1.0 mph1.6 kmh 30.16 in1021.3 mb 0.00 in0.0 mm 0.00 in0.0 mm 0.00 in0.0 mm
05:50 PM 76.7°F24.8°C 58.2°F14.6°C 53% Calm Calm -- 30.16 in1021.3 mb 0.00 in0.0 mm 0.00 in0.0 mm 0.00 in0.0 mm
05:55 PM 76.3°F24.6°C 58.4°F14.7°C 54% Calm Calm -- 30.16 in1021.3 mb 0.00 in0.0 mm 0.00 in0.0 mm 0.00 in0.0 mm
06:00 PM 76.0°F24.4°C 59.1°F15.1°C 56% Calm Calm -- 30.16 in1021.3 mb 0.00 in0.0 mm 0.00 in0.0 mm 0.00 in0.0 mm
06:05 PM 75.7°F24.3°C 58.8°F14.9°C 56% Calm Calm -- 30.16 in1021.3 mb 0.00 in0.0 mm 0.00 in0.0 mm 0.00 in0.0 mm
06:10 PM 75.4°F24.1°C 58.5°F14.7°C 56% Calm Calm -- 30.16 in1021.3 mb 0.00 in0.0 mm 0.00 in0.0 mm 0.00 in0.0 mm
06:15 PM 75.1°F23.9°C 58.8°F14.9°C 57% Calm Calm -- 30.16 in1021.3 mb 0.00 in0.0 mm 0.00 in0.0 mm 0.00 in0.0 mm
06:20 PM 74.8°F23.8°C 59.4°F15.2°C 59% Calm Calm -- 30.17 in1021.7 mb 0.00 in0.0 mm 0.00 in0.0 mm 0.00 in0.0 mm
06:25 PM 74.5°F23.6°C 58.2°F14.6°C 57% Calm Calm -- 30.16 in1021.3 mb 0.00 in0.0 mm 0.00 in0.0 mm 0.00 in0.0 mm
06:30 PM 74.1°F23.4°C 57.3°F14.1°C 56% Calm Calm -- 30.16 in1021.3 mb 0.00 in0.0 mm 0.00 in0.0 mm 0.00 in0.0 mm
06:35 PM 73.8°F23.2°C 56.6°F13.7°C 55% Calm Calm -- 30.16 in1021.3 mb 0.00 in0.0 mm 0.00 in0.0 mm 0.00 in0.0 mm
06:40 PM 73.5°F23.1°C 57.3°F14.1°C 57% Calm Calm -- 30.16 in1021.3 mb 0.00 in0.0 mm 0.00 in0.0 mm 0.00 in0.0 mm
06:45 PM 73.3°F22.9°C 58.0°F14.4°C 59% Calm Calm -- 30.17 in1021.7 mb 0.00 in0.0 mm 0.00 in0.0 mm 0.00 in0.0 mm
06:50 PM 73.1°F22.8°C 58.8°F14.9°C 61% Calm Calm -- 30.17 in1021.7 mb 0.00 in0.0 mm 0.00 in0.0 mm 0.00 in0.0 mm
06:55 PM 72.8°F22.7°C 58.0°F14.4°C 60% Calm Calm -- 30.17 in1021.7 mb 0.00 in0.0 mm 0.00 in0.0 mm 0.00 in0.0 mm
07:00 PM 72.5°F22.5°C 58.2°F14.6°C 61% Calm Calm -- 30.17 in1021.7 mb 0.00 in0.0 mm 0.00 in0.0 mm 0.00 in0.0 mm
07:05 PM 72.2°F22.3°C 58.4°F14.7°C 62% 2.0 mph WNW3.2 kmh WNW 2.0 mph3.2 kmh 30.17 in1021.7 mb 0.00 in0.0 mm 0.00 in0.0 mm 0.00 in0.0 mm
07:10 PM 71.9°F22.2°C 58.1°F14.5°C 62% 2.0 mph SW3.2 kmh SW 2.0 mph3.2 kmh 30.17 in1021.7 mb 0.00 in0.0 mm 0.00 in0.0 mm 0.00 in0.0 mm
07:15 PM 71.6°F22.0°C 57.4°F14.1°C 61% Calm Calm 2.0 mph3.2 kmh 30.17 in1021.7 mb 0.00 in0.0 mm 0.00 in0.0 mm 0.00 in0.0 mm
07:20 PM 71.3°F21.8°C 57.1°F13.9°C 61% 1.0 mph SW1.6 kmh SW 3.0 mph4.8 kmh 30.17 in1021.7 mb 0.00 in0.0 mm 0.00 in0.0 mm 0.00 in0.0 mm
07:25 PM 71.2°F21.8°C 57.0°F13.9°C 61% Calm Calm 2.0 mph3.2 kmh 30.18 in1022.0 mb 0.00 in0.0 mm 0.00 in0.0 mm 0.00 in0.0 mm
07:30 PM 71.1°F21.7°C 58.2°F14.6°C 64% 2.0 mph SW3.2 kmh SW 2.0 mph3.2 kmh 30.18 in1022.0 mb 0.00 in0.0 mm 0.00 in0.0 mm 0.00 in0.0 mm
07:35 PM 70.7°F21.5°C 57.4°F14.1°C 63% Calm Calm 2.0 mph3.2 kmh 30.18 in1022.0 mb 0.00 in0.0 mm 0.00 in0.0 mm 0.00 in0.0 mm
07:40 PM 70.5°F21.4°C 58.1°F14.5°C 65% 3.0 mph SSE4.8 kmh SSE 3.0 mph4.8 kmh 30.18 in1022.0 mb 0.00 in0.0 mm 0.00 in0.0 mm 0.00 in0.0 mm
07:45 PM 70.2°F21.2°C 57.8°F14.3°C 65% 1.0 mph SSE1.6 kmh SSE 3.0 mph4.8 kmh 30.18 in1022.0 mb 0.00 in0.0 mm 0.00 in0.0 mm 0.00 in0.0 mm
07:50 PM 69.9°F21.1°C 57.5°F14.2°C 65% 1.0 mph SSE1.6 kmh SSE 3.0 mph4.8 kmh 30.18 in1022.0 mb 0.00 in0.0 mm 0.00 in0.0 mm 0.00 in0.0 mm
07:55 PM 69.6°F20.9°C 57.7°F14.3°C 66% 1.0 mph SSE1.6 kmh SSE 3.0 mph4.8 kmh 30.18 in1022.0 mb 0.00 in0.0 mm 0.00 in0.0 mm 0.00 in0.0 mm
08:00 PM 69.3°F20.7°C 57.4°F14.1°C 66% 2.0 mph S3.2 kmh S 3.0 mph4.8 kmh 30.18 in1022.0 mb 0.00 in0.0 mm 0.00 in0.0 mm 0.00 in0.0 mm
08:05 PM 69.0°F20.6°C 57.9°F14.4°C 68% 4.0 mph SSE6.4 kmh SSE 5.0 mph8.0 kmh 30.18 in1022.0 mb 0.00 in0.0 mm 0.00 in0.0 mm 0.00 in0.0 mm
08:10 PM 68.8°F20.4°C 57.7°F14.3°C 68% 2.0 mph SSE3.2 kmh SSE 4.0 mph6.4 kmh 30.18 in1022.0 mb 0.00 in0.0 mm 0.00 in0.0 mm 0.00 in0.0 mm
08:15 PM 68.5°F20.3°C 57.9°F14.4°C 69% 3.0 mph S4.8 kmh S 5.0 mph8.0 kmh 30.17 in1021.7 mb 0.00 in0.0 mm 0.00 in0.0 mm 0.00 in0.0 mm
08:20 PM 68.2°F20.1°C 58.0°F14.4°C 70% 1.0 mph SSE1.6 kmh SSE 3.0 mph4.8 kmh 30.18 in1022.0 mb 0.00 in0.0 mm 0.00 in0.0 mm 0.00 in0.0 mm
08:25 PM 68.1°F20.1°C 57.9°F14.4°C 70% 1.0 mph S1.6 kmh S 3.0 mph4.8 kmh 30.18 in1022.0 mb 0.00 in0.0 mm 0.00 in0.0 mm 0.00 in0.0 mm
08:30 PM 67.9°F19.9°C 57.7°F14.3°C 70% 1.0 mph SSE1.6 kmh SSE 3.0 mph4.8 kmh 30.18 in1022.0 mb 0.00 in0.0 mm 0.00 in0.0 mm 0.00 in0.0 mm
08:35 PM 67.7°F19.8°C 57.9°F14.4°C 71% Calm Calm 3.0 mph4.8 kmh 30.18 in1022.0 mb 0.00 in0.0 mm 0.00 in0.0 mm 0.00 in0.0 mm
08:40 PM 67.6°F19.8°C 57.8°F14.3°C 71% 2.0 mph SSE3.2 kmh SSE 3.0 mph4.8 kmh 30.18 in1022.0 mb 0.00 in0.0 mm 0.00 in0.0 mm 0.00 in0.0 mm
08:45 PM 67.4°F19.7°C 57.6°F14.2°C 71% 3.0 mph SSE4.8 kmh SSE 4.0 mph6.4 kmh 30.18 in1022.0 mb 0.00 in0.0 mm 0.00 in0.0 mm 0.00 in0.0 mm
08:50 PM 67.1°F19.5°C 57.3°F14.1°C 71% 3.0 mph SE4.8 kmh SE 4.0 mph6.4 kmh 30.18 in1022.0 mb 0.00 in0.0 mm 0.00 in0.0 mm 0.00 in0.0 mm
08:55 PM 66.9°F19.4°C 57.5°F14.2°C 72% 2.0 mph SSE3.2 kmh SSE 3.0 mph4.8 kmh 30.18 in1022.0 mb 0.00 in0.0 mm 0.00 in0.0 mm 0.00 in0.0 mm
09:00 PM 66.7°F19.3°C 57.3°F14.1°C 72% 1.0 mph S1.6 kmh S 4.0 mph6.4 kmh 30.18 in1022.0 mb 0.00 in0.0 mm 0.00 in0.0 mm 0.00 in0.0 mm
09:05 PM 66.6°F19.2°C 57.2°F14.0°C 72% 1.0 mph SSE1.6 kmh SSE 4.0 mph6.4 kmh 30.17 in1021.7 mb 0.00 in0.0 mm 0.00 in0.0 mm 0.00 in0.0 mm
09:10 PM 66.5°F19.2°C 56.7°F13.7°C 71% 2.0 mph SE3.2 kmh SE 4.0 mph6.4 kmh 30.18 in1022.0 mb 0.00 in0.0 mm 0.00 in0.0 mm 0.00 in0.0 mm
09:15 PM 66.3°F19.1°C 56.9°F13.8°C 72% 1.0 mph SSE1.6 kmh SSE 4.0 mph6.4 kmh 30.18 in1022.0 mb 0.00 in0.0 mm 0.00 in0.0 mm 0.00 in0.0 mm
09:20 PM 66.1°F18.9°C 56.8°F13.8°C 72% 1.0 mph S1.6 kmh S 4.0 mph6.4 kmh 30.18 in1022.0 mb 0.00 in0.0 mm 0.00 in0.0 mm 0.00 in0.0 mm
09:25 PM 66.0°F18.9°C 56.7°F13.7°C 72% 2.0 mph SSE3.2 kmh SSE 3.0 mph4.8 kmh 30.18 in1022.0 mb 0.00 in0.0 mm 0.00 in0.0 mm 0.00 in0.0 mm
09:30 PM 65.8°F18.8°C 56.1°F13.4°C 71% 3.0 mph S4.8 kmh S 5.0 mph8.0 kmh 30.18 in1022.0 mb 0.00 in0.0 mm 0.00 in0.0 mm 0.00 in0.0 mm
09:35 PM 65.7°F18.7°C 56.0°F13.3°C 71% 2.0 mph SSE3.2 kmh SSE 4.0 mph6.4 kmh 30.18 in1022.0 mb 0.00 in0.0 mm 0.00 in0.0 mm 0.00 in0.0 mm
09:40 PM 65.6°F18.7°C 55.5°F13.1°C 70% Calm Calm 3.0 mph4.8 kmh 30.18 in1022.0 mb 0.00 in0.0 mm 0.00 in0.0 mm 0.00 in0.0 mm
09:45 PM 65.5°F18.6°C 55.8°F13.2°C 71% 3.0 mph SSE4.8 kmh SSE 4.0 mph6.4 kmh 30.18 in1022.0 mb 0.00 in0.0 mm 0.00 in0.0 mm 0.00 in0.0 mm
09:50 PM 65.3°F18.5°C 55.6°F13.1°C 71% 2.0 mph S3.2 kmh S 3.0 mph4.8 kmh 30.19 in1022.4 mb 0.00 in0.0 mm 0.00 in0.0 mm 0.00 in0.0 mm
09:55 PM 65.1°F18.4°C 55.4°F13.0°C 71% 2.0 mph S3.2 kmh S 4.0 mph6.4 kmh 30.19 in1022.4 mb 0.00 in0.0 mm 0.00 in0.0 mm 0.00 in0.0 mm
10:00 PM 64.9°F18.3°C 55.2°F12.9°C 71% 4.0 mph S6.4 kmh S 5.0 mph8.0 kmh 30.19 in1022.4 mb 0.00 in0.0 mm 0.00 in0.0 mm 0.00 in0.0 mm
10:05 PM 64.7°F18.2°C 54.6°F12.6°C 70% 4.0 mph S6.4 kmh S 6.0 mph9.7 kmh 30.19 in1022.4 mb 0.00 in0.0 mm 0.00 in0.0 mm 0.00 in0.0 mm
10:10 PM 64.6°F18.1°C 54.9°F12.7°C 71% 3.0 mph S4.8 kmh S 5.0 mph8.0 kmh 30.18 in1022.0 mb 0.00 in0.0 mm 0.00 in0.0 mm 0.00 in0.0 mm
10:15 PM 64.4°F18.0°C 54.7°F12.6°C 71% 2.0 mph S3.2 kmh S 7.0 mph11.3 kmh 30.19 in1022.4 mb 0.00 in0.0 mm 0.00 in0.0 mm 0.00 in0.0 mm
10:20 PM 64.1°F17.8°C 54.4°F12.4°C 71% 2.0 mph S3.2 kmh S 6.0 mph9.7 kmh 30.18 in1022.0 mb 0.00 in0.0 mm 0.00 in0.0 mm 0.00 in0.0 mm
10:25 PM 63.8°F17.7°C 54.2°F12.3°C 71% 3.0 mph SSE4.8 kmh SSE 6.0 mph9.7 kmh 30.19 in1022.4 mb 0.00 in0.0 mm 0.00 in0.0 mm 0.00 in0.0 mm
10:30 PM 63.6°F17.6°C 54.0°F12.2°C 71% 2.0 mph S3.2 kmh S 6.0 mph9.7 kmh 30.19 in1022.4 mb 0.00 in0.0 mm 0.00 in0.0 mm 0.00 in0.0 mm
10:35 PM 63.4°F17.4°C 54.2°F12.3°C 72% 4.0 mph S6.4 kmh S 6.0 mph9.7 kmh 30.19 in1022.4 mb 0.00 in0.0 mm 0.00 in0.0 mm 0.00 in0.0 mm
10:40 PM 63.2°F17.3°C 54.0°F12.2°C 72% 2.0 mph S3.2 kmh S 5.0 mph8.0 kmh 30.19 in1022.4 mb 0.00 in0.0 mm 0.00 in0.0 mm 0.00 in0.0 mm
10:45 PM 63.1°F17.3°C 53.9°F12.2°C 72% 4.0 mph S6.4 kmh S 6.0 mph9.7 kmh 30.19 in1022.4 mb 0.00 in0.0 mm 0.00 in0.0 mm 0.00 in0.0 mm
10:50 PM 62.9°F17.2°C 54.1°F12.3°C 73% 3.0 mph S4.8 kmh S 7.0 mph11.3 kmh 30.19 in1022.4 mb 0.00 in0.0 mm 0.00 in0.0 mm 0.00 in0.0 mm
10:55 PM 62.8°F17.1°C 54.0°F12.2°C 73% 2.0 mph S3.2 kmh S 5.0 mph8.0 kmh 30.19 in1022.4 mb 0.00 in0.0 mm 0.00 in0.0 mm 0.00 in0.0 mm
11:00 PM 62.7°F17.1°C 53.9°F12.2°C 73% 3.0 mph S4.8 kmh S 6.0 mph9.7 kmh 30.19 in1022.4 mb 0.00 in0.0 mm 0.00 in0.0 mm 0.00 in0.0 mm
11:05 PM 62.6°F17.0°C 53.8°F12.1°C 73% 2.0 mph S3.2 kmh S 6.0 mph9.7 kmh 30.18 in1022.0 mb 0.00 in0.0 mm 0.00 in0.0 mm 0.00 in0.0 mm
11:10 PM 62.5°F16.9°C 53.7°F12.1°C 73% 2.0 mph SSE3.2 kmh SSE 5.0 mph8.0 kmh 30.18 in1022.0 mb 0.00 in0.0 mm 0.00 in0.0 mm 0.00 in0.0 mm
11:15 PM 62.4°F16.9°C 53.6°F12.0°C 73% 3.0 mph S4.8 kmh S 5.0 mph8.0 kmh 30.19 in1022.4 mb 0.00 in0.0 mm 0.00 in0.0 mm 0.00 in0.0 mm
11:20 PM 62.2°F16.8°C 53.8°F12.1°C 74% 1.0 mph SSE1.6 kmh SSE 6.0 mph9.7 kmh 30.19 in1022.4 mb 0.00 in0.0 mm 0.00 in0.0 mm 0.00 in0.0 mm
11:25 PM 62.1°F16.7°C 53.7°F12.1°C 74% 4.0 mph S6.4 kmh S 6.0 mph9.7 kmh 30.18 in1022.0 mb 0.00 in0.0 mm 0.00 in0.0 mm 0.00 in0.0 mm
11:30 PM 61.9°F16.6°C 53.5°F11.9°C 74% 1.0 mph S1.6 kmh S 6.0 mph9.7 kmh 30.18 in1022.0 mb 0.00 in0.0 mm 0.00 in0.0 mm 0.00 in0.0 mm
11:35 PM 61.7°F16.5°C 53.6°F12.0°C 75% 3.0 mph S4.8 kmh S 6.0 mph9.7 kmh 30.18 in1022.0 mb 0.00 in0.0 mm 0.00 in0.0 mm 0.00 in0.0 mm
11:40 PM 61.6°F16.4°C 53.5°F11.9°C 75% 4.0 mph SE6.4 kmh SE 5.0 mph8.0 kmh 30.18 in1022.0 mb 0.00 in0.0 mm 0.00 in0.0 mm 0.00 in0.0 mm
11:45 PM 61.5°F16.4°C 53.4°F11.9°C 75% 2.0 mph SSE3.2 kmh SSE 7.0 mph11.3 kmh 30.18 in1022.0 mb 0.00 in0.0 mm 0.00 in0.0 mm 0.00 in0.0 mm
11:50 PM 61.4°F16.3°C 53.4°F11.9°C 75% 2.0 mph SSE3.2 kmh SSE 6.0 mph9.7 kmh 30.18 in1022.0 mb 0.00 in0.0 mm 0.00 in0.0 mm 0.00 in0.0 mm
11:55 PM 61.4°F16.3°C 53.4°F11.9°C 75% 3.0 mph S4.8 kmh S 7.0 mph11.3 kmh 30.18 in1022.0 mb 0.00 in0.0 mm 0.00 in0.0 mm 0.00 in0.0 mm